sensor_id;sensor_type;location;lat;lon;timestamp;pressure;altitude;pressure_sealevel;temperature;humidity
63622;BME280;49770;47.544;19.074;2023-01-25T05:14:28;101871.44;;;-2.26;100.00
63622;BME280;49770;47.544;19.074;2023-01-25T05:17:33;101874.81;;;-2.29;100.00
63622;BME280;49770;47.544;19.074;2023-01-25T05:20:36;101877.53;;;-2.24;100.00
63622;BME280;49770;47.544;19.074;2023-01-25T05:23:40;101872.38;;;-2.23;100.00
63622;BME280;49770;47.544;19.074;2023-01-25T05:26:43;101872.44;;;-2.21;100.00
63622;BME280;49770;47.544;19.074;2023-01-25T05:30:06;101878.50;;;-2.21;100.00
63622;BME280;49770;47.544;19.074;2023-01-25T05:33:13;101885.38;;;-2.23;100.00
63622;BME280;49770;47.544;19.074;2023-01-25T05:36:17;101884.47;;;-2.25;100.00
63622;BME280;49770;47.544;19.074;2023-01-25T05:39:21;101893.09;;;-2.26;100.00
63622;BME280;49770;47.544;19.074;2023-01-25T05:42:25;101891.44;;;-2.24;100.00
63622;BME280;49770;47.544;19.074;2023-01-25T05:45:28;101884.59;;;-2.20;100.00
63622;BME280;49770;47.544;19.074;2023-01-25T05:48:35;101879.41;;;-2.20;100.00
63622;BME280;49770;47.544;19.074;2023-01-25T05:51:39;101874.09;;;-2.23;100.00
63622;BME280;49770;47.544;19.074;2023-01-25T05:54:42;101877.47;;;-2.27;100.00
63622;BME280;49770;47.544;19.074;2023-01-25T05:57:45;101879.22;;;-2.26;100.00
63622;BME280;49770;47.544;19.074;2023-01-25T06:00:48;101885.03;;;-2.03;100.00
63622;BME280;49770;47.544;19.074;2023-01-25T06:03:52;101880.69;;;-2.04;100.00
63622;BME280;49770;47.544;19.074;2023-01-25T06:06:56;101878.03;;;-2.06;100.00
63622;BME280;49770;47.544;19.074;2023-01-25T06:09:59;101882.50;;;-2.01;100.00
63622;BME280;49770;47.544;19.074;2023-01-25T06:13:03;101881.06;;;-1.90;100.00
63622;BME280;49770;47.544;19.074;2023-01-25T06:16:07;101885.53;;;-1.84;100.00
63622;BME280;49770;47.544;19.074;2023-01-25T06:19:12;101882.69;;;-1.60;100.00
63622;BME280;49770;47.544;19.074;2023-01-25T06:22:16;101896.34;;;-1.67;100.00
63622;BME280;49770;47.544;19.074;2023-01-25T06:25:19;101888.69;;;-1.63;100.00
63622;BME280;49770;47.544;19.074;2023-01-25T06:28:22;101900.44;;;-1.79;100.00
63622;BME280;49770;47.544;19.074;2023-01-25T06:31:24;101896.03;;;-1.80;100.00
63622;BME280;49770;47.544;19.074;2023-01-25T06:34:27;101905.47;;;-1.85;100.00
63622;BME280;49770;47.544;19.074;2023-01-25T06:37:30;101906.66;;;-1.72;100.00
63622;BME280;49770;47.544;19.074;2023-01-25T06:40:34;101910.09;;;-1.73;100.00
63622;BME280;49770;47.544;19.074;2023-01-25T06:43:37;101913.28;;;-1.85;100.00
63622;BME280;49770;47.544;19.074;2023-01-25T06:46:40;101911.31;;;-1.94;100.00
63622;BME280;49770;47.544;19.074;2023-01-25T06:49:43;101910.59;;;-1.88;100.00
63622;BME280;49770;47.544;19.074;2023-01-25T06:52:53;101915.75;;;-1.90;100.00
63622;BME280;49770;47.544;19.074;2023-01-25T06:56:11;101904.16;;;-1.67;100.00
63622;BME280;49770;47.544;19.074;2023-01-25T06:59:16;101905.00;;;-1.70;100.00
63622;BME280;49770;47.544;19.074;2023-01-25T07:02:19;101907.50;;;-1.73;100.00
63622;BME280;49770;47.544;19.074;2023-01-25T07:05:22;101907.44;;;-1.76;100.00
63622;BME280;49770;47.544;19.074;2023-01-25T07:08:26;101914.31;;;-1.78;100.00
63622;BME280;49770;47.544;19.074;2023-01-25T07:11:29;101913.44;;;-1.79;100.00
63622;BME280;49770;47.544;19.074;2023-01-25T07:14:32;101911.97;;;-1.69;100.00
63622;BME280;49770;47.544;19.074;2023-01-25T07:17:35;101906.81;;;-1.66;100.00
63622;BME280;49770;47.544;19.074;2023-01-25T07:20:38;101905.25;;;-1.59;100.00
63622;BME280;49770;47.544;19.074;2023-01-25T07:23:42;101901.22;;;-1.47;100.00
63622;BME280;49770;47.544;19.074;2023-01-25T07:26:45;101901.66;;;-1.29;100.00
63622;BME280;49770;47.544;19.074;2023-01-25T07:29:50;101903.47;;;-1.25;100.00
63622;BME280;49770;47.544;19.074;2023-01-25T07:32:53;101898.91;;;-1.35;100.00
63622;BME280;49770;47.544;19.074;2023-01-25T07:36:05;101903.03;;;-1.43;100.00
63622;BME280;49770;47.544;19.074;2023-01-25T07:39:09;101892.44;;;-1.51;100.00
63622;BME280;49770;47.544;19.074;2023-01-25T07:42:13;101904.72;;;-1.45;100.00
63622;BME280;49770;47.544;19.074;2023-01-25T07:45:22;101904.31;;;-1.26;100.00
63622;BME280;49770;47.544;19.074;2023-01-25T07:48:32;101902.34;;;-0.99;100.00
63622;BME280;49770;47.544;19.074;2023-01-25T07:51:35;101908.44;;;-0.97;100.00
63622;BME280;49770;47.544;19.074;2023-01-25T07:54:38;101901.03;;;-0.80;100.00
63622;BME280;49770;47.544;19.074;2023-01-25T07:57:41;101901.53;;;-0.57;100.00
63622;BME280;49770;47.544;19.074;2023-01-25T08:00:47;101907.25;;;-0.73;100.00
63622;BME280;49770;47.544;19.074;2023-01-25T08:03:50;101897.03;;;-0.62;100.00
63622;BME280;49770;47.544;19.074;2023-01-25T08:06:53;101892.84;;;-0.56;100.00
63622;BME280;49770;47.544;19.074;2023-01-25T08:09:56;101896.00;;;-0.29;100.00
63622;BME280;49770;47.544;19.074;2023-01-25T08:12:59;101890.63;;;0.09;100.00
63622;BME280;49770;47.544;19.074;2023-01-25T08:16:02;101891.84;;;0.30;100.00
63622;BME280;49770;47.544;19.074;2023-01-25T08:19:05;101889.19;;;0.83;100.00
63622;BME280;49770;47.544;19.074;2023-01-25T08:22:09;101890.34;;;1.00;100.00
63622;BME280;49770;47.544;19.074;2023-01-25T08:25:12;101887.37;;;1.40;100.00
63622;BME280;49770;47.544;19.074;2023-01-25T08:28:15;101885.62;;;1.39;100.00
63622;BME280;49770;47.544;19.074;2023-01-25T08:31:24;101884.59;;;1.26;100.00
63622;BME280;49770;47.544;19.074;2023-01-25T08:34:28;101881.53;;;1.61;100.00
63622;BME280;49770;47.544;19.074;2023-01-25T08:37:32;101884.75;;;1.39;100.00
63622;BME280;49770;47.544;19.074;2023-01-25T08:40:36;101881.22;;;1.33;100.00
63622;BME280;49770;47.544;19.074;2023-01-25T08:43:40;101880.31;;;1.33;100.00
63622;BME280;49770;47.544;19.074;2023-01-25T08:46:43;101877.84;;;1.42;100.00
63622;BME280;49770;47.544;19.074;2023-01-25T08:49:47;101876.16;;;1.49;100.00
63622;BME280;49770;47.544;19.074;2023-01-25T08:52:50;101880.03;;;1.81;100.00
63622;BME280;49770;47.544;19.074;2023-01-25T08:55:53;101876.22;;;1.54;100.00
63622;BME280;49770;47.544;19.074;2023-01-25T08:58:56;101872.03;;;1.68;100.00
63622;BME280;49770;47.544;19.074;2023-01-25T09:01:59;101873.94;;;1.85;100.00
63622;BME280;49770;47.544;19.074;2023-01-25T09:05:01;101868.41;;;1.57;100.00
63622;BME280;49770;47.544;19.074;2023-01-25T09:08:07;101873.72;;;1.63;100.00
63622;BME280;49770;47.544;19.074;2023-01-25T09:11:15;101869.44;;;1.68;100.00
63622;BME280;49770;47.544;19.074;2023-01-25T09:14:17;101875.25;;;1.45;100.00
63622;BME280;49770;47.544;19.074;2023-01-25T09:17:21;101871.00;;;1.55;100.00
63622;BME280;49770;47.544;19.074;2023-01-25T09:20:25;101879.03;;;1.71;100.00
63622;BME280;49770;47.544;19.074;2023-01-25T09:23:28;101867.75;;;1.73;100.00
63622;BME280;49770;47.544;19.074;2023-01-25T09:26:32;101870.97;;;1.51;100.00
63622;BME280;49770;47.544;19.074;2023-01-25T09:29:35;101872.81;;;1.62;100.00
63622;BME280;49770;47.544;19.074;2023-01-25T09:32:40;101868.50;;;1.65;100.00
63622;BME280;49770;47.544;19.074;2023-01-25T09:35:47;101863.09;;;1.49;100.00
63622;BME280;49770;47.544;19.074;2023-01-25T09:38:50;101868.16;;;1.37;100.00
63622;BME280;49770;47.544;19.074;2023-01-25T09:45:20;101871.28;;;1.09;100.00
63622;BME280;49770;47.544;19.074;2023-01-25T09:48:53;101855.81;;;1.23;100.00
63622;BME280;49770;47.544;19.074;2023-01-25T09:55:41;101845.75;;;1.56;100.00
63622;BME280;49770;47.544;19.074;2023-01-25T09:58:45;101840.66;;;1.71;100.00
63622;BME280;49770;47.544;19.074;2023-01-25T10:02:00;101836.41;;;1.81;100.00
63622;BME280;49770;47.544;19.074;2023-01-25T10:05:14;101831.75;;;1.52;100.00
63622;BME280;49770;47.544;19.074;2023-01-25T10:11:43;101816.19;;;1.65;100.00
63622;BME280;49770;47.544;19.074;2023-01-25T10:14:47;101806.72;;;1.78;100.00
63622;BME280;49770;47.544;19.074;2023-01-25T10:18:00;101816.50;;;1.96;100.00
63622;BME280;49770;47.544;19.074;2023-01-25T10:21:17;101808.03;;;2.28;100.00
63622;BME280;49770;47.544;19.074;2023-01-25T10:28:36;101800.00;;;2.08;100.00
63622;BME280;49770;47.544;19.074;2023-01-25T10:31:35;101795.50;;;1.93;100.00
63622;BME280;49770;47.544;19.074;2023-01-25T10:34:46;101791.16;;;1.93;100.00
63622;BME280;49770;47.544;19.074;2023-01-25T10:38:02;101787.94;;;2.25;100.00
63622;BME280;49770;47.544;19.074;2023-01-25T10:41:24;101782.78;;;2.36;100.00
63622;BME280;49770;47.544;19.074;2023-01-25T10:44:30;101779.28;;;2.34;100.00
63622;BME280;49770;47.544;19.074;2023-01-25T10:47:35;101777.34;;;2.11;100.00
63622;BME280;49770;47.544;19.074;2023-01-25T10:53:57;101775.78;;;2.32;100.00
63622;BME280;49770;47.544;19.074;2023-01-25T10:57:00;101772.16;;;2.14;100.00
63622;BME280;49770;47.544;19.074;2023-01-25T11:00:07;101765.22;;;2.23;100.00
63622;BME280;49770;47.544;19.074;2023-01-25T11:03:21;101759.97;;;2.20;100.00
63622;BME280;49770;47.544;19.074;2023-01-25T11:06:35;101750.53;;;2.42;100.00
63622;BME280;49770;47.544;19.074;2023-01-25T11:09:38;101747.94;;;2.47;100.00
63622;BME280;49770;47.544;19.074;2023-01-25T11:12:41;101751.34;;;2.33;100.00
63622;BME280;49770;47.544;19.074;2023-01-25T11:15:50;101741.66;;;2.20;100.00
63622;BME280;49770;47.544;19.074;2023-01-25T11:18:55;101740.84;;;2.32;100.00
63622;BME280;49770;47.544;19.074;2023-01-25T11:22:02;101731.25;;;2.32;100.00
63622;BME280;49770;47.544;19.074;2023-01-25T11:25:27;101732.31;;;2.68;100.00
63622;BME280;49770;47.544;19.074;2023-01-25T11:28:30;101723.50;;;2.49;100.00
63622;BME280;49770;47.544;19.074;2023-01-25T11:31:34;101719.94;;;2.42;100.00
63622;BME280;49770;47.544;19.074;2023-01-25T11:34:37;101713.03;;;2.52;100.00
63622;BME280;49770;47.544;19.074;2023-01-25T11:51:01;101664.34;;;3.17;100.00
63622;BME280;49770;47.544;19.074;2023-01-25T11:54:36;101663.41;;;2.93;100.00
63622;BME280;49770;47.544;19.074;2023-01-25T11:57:51;101643.31;;;2.90;100.00
63622;BME280;49770;47.544;19.074;2023-01-25T12:01:05;101637.25;;;3.47;100.00
63622;BME280;49770;47.544;19.074;2023-01-25T12:08:26;101632.75;;;2.72;100.00
63622;BME280;49770;47.544;19.074;2023-01-25T12:11:57;101631.06;;;2.85;100.00
63622;BME280;49770;47.544;19.074;2023-01-25T12:25:23;101615.31;;;2.78;100.00
63622;BME280;49770;47.544;19.074;2023-01-25T12:28:41;101615.31;;;2.75;100.00
63622;BME280;49770;47.544;19.074;2023-01-25T12:31:54;101605.69;;;2.77;100.00
63622;BME280;49770;47.544;19.074;2023-01-25T12:39:12;101606.50;;;2.58;100.00
63622;BME280;49770;47.544;19.074;2023-01-25T12:42:19;101602.19;;;2.64;100.00
63622;BME280;49770;47.544;19.074;2023-01-25T12:45:31;101603.06;;;2.69;100.00
63622;BME280;49770;47.544;19.074;2023-01-25T12:48:40;101598.72;;;2.73;100.00
63622;BME280;49770;47.544;19.074;2023-01-25T12:51:47;101596.94;;;2.67;100.00
63622;BME280;49770;47.544;19.074;2023-01-25T12:54:51;101589.09;;;2.69;100.00
63622;BME280;49770;47.544;19.074;2023-01-25T12:58:00;101585.56;;;2.64;100.00
63622;BME280;49770;47.544;19.074;2023-01-25T13:08:02;101574.28;;;2.97;100.00
63622;BME280;49770;47.544;19.074;2023-01-25T13:11:29;101564.63;;;2.70;100.00
63622;BME280;49770;47.544;19.074;2023-01-25T13:14:36;101574.19;;;2.48;100.00
63622;BME280;49770;47.544;19.074;2023-01-25T13:17:40;101561.09;;;2.51;100.00
63622;BME280;49770;47.544;19.074;2023-01-25T13:24:06;101564.66;;;2.73;100.00
63622;BME280;49770;47.544;19.074;2023-01-25T13:27:26;101558.50;;;2.66;100.00
63622;BME280;49770;47.544;19.074;2023-01-25T13:30:32;101549.78;;;2.80;100.00
63622;BME280;49770;47.544;19.074;2023-01-25T13:33:36;101558.50;;;2.71;100.00
63622;BME280;49770;47.544;19.074;2023-01-25T13:36:44;101550.69;;;2.93;100.00
63622;BME280;49770;47.544;19.074;2023-01-25T13:43:19;101541.06;;;2.87;100.00
63622;BME280;49770;47.544;19.074;2023-01-25T13:46:24;101547.22;;;3.03;100.00
63622;BME280;49770;47.544;19.074;2023-01-25T13:49:33;101550.69;;;3.08;100.00
63622;BME280;49770;47.544;19.074;2023-01-25T13:52:38;101545.47;;;3.05;100.00
63622;BME280;49770;47.544;19.074;2023-01-25T13:55:46;101537.59;;;3.04;100.00
63622;BME280;49770;47.544;19.074;2023-01-25T13:58:50;101537.56;;;2.96;100.00
63622;BME280;49770;47.544;19.074;2023-01-25T14:01:53;101539.31;;;2.92;100.00
63622;BME280;49770;47.544;19.074;2023-01-25T14:04:57;101535.84;;;2.98;100.00
63622;BME280;49770;47.544;19.074;2023-01-25T14:08:00;101541.06;;;2.90;100.00
63622;BME280;49770;47.544;19.074;2023-01-25T14:11:04;101533.22;;;2.86;100.00
63622;BME280;49770;47.544;19.074;2023-01-25T14:17:20;101531.44;;;2.86;100.00
63622;BME280;49770;47.544;19.074;2023-01-25T14:20:24;101522.72;;;2.84;100.00
63622;BME280;49770;47.544;19.074;2023-01-25T14:23:28;101529.72;;;2.88;100.00
63622;BME280;49770;47.544;19.074;2023-01-25T14:26:33;101525.31;;;2.76;100.00
63622;BME280;49770;47.544;19.074;2023-01-25T14:29:37;101525.31;;;2.75;100.00
63622;BME280;49770;47.544;19.074;2023-01-25T14:32:45;101531.44;;;2.67;100.00
63622;BME280;49770;47.544;19.074;2023-01-25T14:35:49;101525.31;;;2.70;100.00
63622;BME280;49770;47.544;19.074;2023-01-25T14:38:59;101520.97;;;2.64;100.00
63622;BME280;49770;47.544;19.074;2023-01-25T14:42:03;101522.69;;;2.61;100.00
63622;BME280;49770;47.544;19.074;2023-01-25T14:45:11;101523.59;;;2.72;100.00
63622;BME280;49770;47.544;19.074;2023-01-25T14:48:34;101513.97;;;2.57;100.00
63622;BME280;49770;47.544;19.074;2023-01-25T14:51:49;101518.31;;;2.67;100.00
63622;BME280;49770;47.544;19.074;2023-01-25T14:54:55;101523.53;;;2.47;100.00
63622;BME280;49770;47.544;19.074;2023-01-25T14:57:59;101513.06;;;2.49;100.00
63622;BME280;49770;47.544;19.074;2023-01-25T15:01:04;101516.59;;;2.57;100.00
63622;BME280;49770;47.544;19.074;2023-01-25T15:04:11;101510.47;;;2.56;100.00
63622;BME280;49770;47.544;19.074;2023-01-25T15:10:58;101511.28;;;2.46;100.00
63622;BME280;49770;47.544;19.074;2023-01-25T15:14:20;101499.94;;;2.47;100.00
63622;BME280;49770;47.544;19.074;2023-01-25T15:20:46;101504.31;;;2.50;100.00
63622;BME280;49770;47.544;19.074;2023-01-25T15:23:53;101507.81;;;2.44;100.00
63622;BME280;49770;47.544;19.074;2023-01-25T15:26:57;101503.44;;;2.40;100.00
63622;BME280;49770;47.544;19.074;2023-01-25T15:29:59;101497.34;;;2.44;100.00
63622;BME280;49770;47.544;19.074;2023-01-25T15:33:03;101506.91;;;2.39;100.00
63622;BME280;49770;47.544;19.074;2023-01-25T15:36:08;101502.53;;;2.30;100.00
63622;BME280;49770;47.544;19.074;2023-01-25T15:39:14;101507.75;;;2.28;100.00
63622;BME280;49770;47.544;19.074;2023-01-25T15:42:17;101506.03;;;2.34;100.00
63622;BME280;49770;47.544;19.074;2023-01-25T15:45:20;101504.25;;;2.25;100.00
63622;BME280;49770;47.544;19.074;2023-01-25T15:48:28;101503.38;;;2.18;100.00
63622;BME280;49770;47.544;19.074;2023-01-25T15:51:32;101501.63;;;2.25;100.00
63622;BME280;49770;47.544;19.074;2023-01-25T15:54:37;101504.25;;;2.22;100.00
63622;BME280;49770;47.544;19.074;2023-01-25T15:57:42;101501.59;;;2.14;100.00
63622;BME280;49770;47.544;19.074;2023-01-25T16:00:47;101499.00;;;2.09;100.00
63622;BME280;49770;47.544;19.074;2023-01-25T16:03:54;101498.13;;;2.13;100.00
63622;BME280;49770;47.544;19.074;2023-01-25T16:06:57;101495.50;;;2.17;100.00
63622;BME280;49770;47.544;19.074;2023-01-25T16:10:02;101488.53;;;2.25;100.00
63622;BME280;49770;47.544;19.074;2023-01-25T16:13:08;101487.66;;;2.15;100.00
63622;BME280;49770;47.544;19.074;2023-01-25T16:16:22;101485.03;;;2.15;100.00
63622;BME280;49770;47.544;19.074;2023-01-25T16:19:26;101482.41;;;2.15;100.00
63622;BME280;49770;47.544;19.074;2023-01-25T16:22:29;101487.63;;;2.10;100.00
63622;BME280;49770;47.544;19.074;2023-01-25T16:25:32;101481.53;;;2.16;100.00
63622;BME280;49770;47.544;19.074;2023-01-25T16:28:36;101486.81;;;2.19;100.00
63622;BME280;49770;47.544;19.074;2023-01-25T16:31:39;101481.56;;;2.25;100.00
63622;BME280;49770;47.544;19.074;2023-01-25T16:34:42;101478.91;;;2.10;100.00
63622;BME280;49770;47.544;19.074;2023-01-25T16:37:45;101484.16;;;2.13;100.00
63622;BME280;49770;47.544;19.074;2023-01-25T16:40:49;101478.94;;;2.18;100.00
63622;BME280;49770;47.544;19.074;2023-01-25T16:43:51;101472.81;;;2.12;100.00
